GMAD/AGA METAR and TAF weather

Enter ICAO airport designator
Station Type Date Time Source
GMAD METAR 2020/09/22 01:00 UTC NOAA

GMAD 220100Z 00000KT 8000 FEW006 18/17 Q1014 NOSIG


Station Type Date Time Source
GMAD Decoded METAR 2020/09/22 01:00 UTC NOAA

Agadir Al Massira, Morocco (GMAD) 30-20N 009-24W 74M
Sep 21, 2020 - 09:00 PM EDT / 2020.09.22 0100 UTC
Wind: Calm:0
Visibility: 4 mile(s):0
Sky conditions: mostly clear
Temperature: 64 F (18 C)
Dew Point: 62 F (17 C)
Relative Humidity: 93%
Pressure (altimeter): 29.94 in. Hg (1014 hPa)
ob: GMAD 220100Z 00000KT 8000 FEW006 18/17 Q1014 NOSIG
cycle: 1

Station Type Date Time Source
GMAD TAF 2020/09/21 18:26 UTC NOAA

TAF GMAD 211700Z 2118/2224 27012KT CAVOK
TEMPO 2205/2209 2000 BR OVC003

Example: see airport list